ADDS METAR Data INFO
IDs: Format: Raw Decoded Include TAF

Data at: 1346 UTC 17 Dec 2017

KDAB 171253Z 00000KT 7SM SCT045 SCT250 12/12 A3026 RMK AO2 SLP244 T01170117
KDAB 171153Z 00000KT 7SM BCFG SCT045 SCT250 11/11 A3025 RMK AO2 SLP242 T01110111 10117 20106 55001
KDAB 171053Z 00000KT 8SM CLR 11/11 A3024 RMK AO2 SLP238 T01060106
KDAB 170953Z 00000KT 8SM CLR 11/11 A3024 RMK AO2 SLP240 T01110106
KDAB 170853Z 00000KT 8SM CLR 11/11 A3025 RMK AO2 SLP242 T01110111 58008
KDAB 170753Z 28003KT 8SM CLR 11/11 A3027 RMK AO2 SLP248 T01060106
KDAB 170653Z 00000KT 8SM CLR 11/11 A3026 RMK AO2 SLP246 T01110111
KDAB 170553Z 00000KT 8SM CLR 11/11 A3027 RMK AO2 SLP250 T01110111 10144 20111 57002
KDAB 170453Z 00000KT 8SM CLR 12/11 A3027 RMK AO2 SLP250 T01170111 401780111
KDAB 170353Z 00000KT 8SM CLR 12/11 A3028 RMK AO2 SLP253 T01220111
KDAB 170253Z 33004KT 9SM CLR 13/12 A3028 RMK AO2 SLP253 T01280117 53007
KDAB 170153Z 34004KT 10SM CLR 13/12 A3027 RMK AO2 SLP249 T01330117
KDAB 170053Z 34004KT 10SM CLR 14/12 A3027 RMK AO2 SLP248 T01390117
KDAB 162353Z 34003KT 10SM FEW250 14/12 A3026 RMK AO2 SLP246 T01440117 10178 20144 53010
KDAB 162253Z 36006KT 10SM SCT250 15/12 A3024 RMK AO2 SLP241 T01500117
KDAB 162153Z 01007KT 10SM FEW050 SCT250 16/12 A3023 RMK AO2 SLP237 T01610117
KDAB 162053Z 03008KT 10SM FEW029 FEW050 BKN250 17/11 A3023 RMK AO2 SLP235 T01720111 56008
KDAB 161953Z 02007KT 10SM FEW029 BKN050 BKN250 18/12 A3023 RMK AO2 SLP237 T01780117
KDAB 161853Z 35006KT 10SM SCT029 BKN050 BKN250 18/11 A3023 RMK AO2 SLP236 T01780111
KDAB 161819Z 03008KT 10SM SCT029 BKN050 BKN250 18/11 A3024 RMK AO2 T01780106
KDAB 161753Z 01005KT 10SM BKN029 BKN050 BKN250 17/11 A3025 RMK AO2 SLP243 T01720106 10172 20111 58007
KDAB 161737Z 03007KT 10SM BKN029 OVC050 17/11 A3026 RMK AO2 T01720106
KDAB 161653Z 02011KT 10SM FEW030 OVC048 17/11 A3027 RMK AO2 SLP250 T01670106
KDAB 161553Z 01012KT 10SM FEW035 OVC049 16/11 A3028 RMK AO2 SLP252 T01610106
KDAB 161453Z 35004KT 10SM FEW031 OVC044 15/11 A3027 RMK AO2 SLP251 T01500106 51017
KDAB 161353Z 36004KT 10SM OVC031 14/09 A3026 RMK AO2 SLP245 OVC V BKN T01390094
KDAB 161253Z 33006KT 10SM BKN031 BKN080 BKN250 13/08 A3025 RMK AO2 SLP243 T01280083
KDAB 161153Z 00000KT 10SM FEW025 SCT080 SCT250 12/07 A3023 RMK AO2 SLP234 T01170072 10150 20111 53014
KDAB 161053Z 33003KT 10SM CLR 12/07 A3019 RMK AO2 SLP223 T01220072
KDAB 160953Z 32003KT 10SM SCT028 13/07 A3018 RMK AO2 SLP220 T01280072
KDAB 160853Z 32006KT 10SM SCT028 SCT085 14/09 A3018 RMK AO2 SLP220 T01390089 53010
KDAB 160753Z 33005KT 10SM SCT085 14/13 A3018 RMK AO2 SLP218 T01390128
KDAB 160653Z 00000KT 10SM SCT085 14/13 A3016 RMK AO2 SLP211 T01440133
KDAB 160553Z 00000KT 10SM BKN080 15/13 A3016 RMK AO2 SLP210 T01500133 10183 20144 50002
KDAB 160453Z 28004KT 10SM CLR 15/13 A3016 RMK AO2 SLP213 T01500133 402560133
KDAB 160353Z 25004KT 10SM FEW250 15/13 A3016 RMK AO2 SLP211 T01500128
KDAB 160253Z 25005KT 10SM SCT250 16/13 A3015 RMK AO2 SLP208 T01560128 51015
KDAB 160153Z 25006KT 10SM SCT250 16/13 A3014 RMK AO2 SLP204 T01560128